• Join FlightAware (Why Join?)
  • Login
  • US Flag 
09:48AM EDT


 

Airport Tracker/Info


-or-


 

Live Flight TrackerFlight Track Log ✈ N450S ✈ 26-Apr-2013 ✈ KMDW - KBKL

Flight Track Log - Related Links

Times and Time Zones

All times are in EDT time to prevent confusion due to time zone crossing. See the N450S flight status page for this flight to view local times or setup timezone preferences in your user account.

Time Position Orientation Groundspeed Altitude Reporting Facility
EDT Latitude Longitude Course Direction KTS MPH feet Rate Location/Type
10:04AM 41.7833 -87.7833 56° Northeast 135 155 1,800  Level Chicago TRACON
10:05AM 41.8000 -87.7500 56° Northeast 164 189 4,000 1,140 Climbing Chicago TRACON
10:06AM 41.7833 -87.6833 109° East 228 262 4,100 600 Climbing Chicago TRACON
10:07AM 41.7833 -87.6000 90° East 223 257 5,300 1,080 Climbing Chicago TRACON
10:07AM 41.7878 -87.5908 57° Northeast 215 247 5,500 480 Climbing Chicago Center
10:08AM 41.7906 -87.5092 87° East 220 253 6,000 360 Climbing Chicago Center
10:09AM 41.7917 -87.4181 89° East 232 267 6,300 960 Climbing Chicago Center
10:10AM 41.7922 -87.3153 90° East 221 254 8,100 1,560 Climbing Chicago Center
10:12AM 41.7906 -87.2325 92° East 219 252 9,600 1,440 Climbing Chicago Center
10:13AM 41.7878 -87.1500 93° East 220 253 11,100 1,500 Climbing Chicago Center
10:14AM 41.7856 -87.0658 92° East 224 258 12,700 960 Climbing Chicago Center
10:15AM 41.7842 -86.9764 91° East 237 273 13,100 180 Climbing Chicago Center
10:16AM 41.7811 -86.8553 92° East 265 305 13,100  Level Chicago Center
10:17AM 41.7775 -86.7506 93° East 277 319 13,100  Level Chicago Center
10:18AM 41.7744 -86.6436 92° East 277 319 13,100 240 Level Chicago Center
10:19AM 41.7731 -86.5414 91° East 276 318 13,700 1,020 Climbing Chicago Center
10:20AM 41.7711 -86.4506 92° East 250 288 15,300 1,260 Climbing Chicago Center
10:21AM 41.7678 -86.3631 93° East 238 274 16,400 1,320 Climbing Chicago Center
10:22AM 41.7703 -86.2747 88° East 238 274 18,100 1,200 Climbing Chicago Center
10:23AM 41.7817 -86.1911 80° East 230 265 18,900 420 Climbing Chicago Center
10:24AM 41.7939 -86.0739 82° East 264 304 19,000  Climbing Chicago Center
10:25AM 41.8064 -85.9678 81° East 285 328 19,000  Level Chicago Center
10:26AM 41.8178 -85.8594 82° East 291 335 19,000  Level Chicago Center
10:27AM 41.8297 -85.7508 82° East 291 335 19,000  Level Chicago Center
10:28AM 41.8419 -85.6419 81° East 294 338 19,000  Level Chicago Center
10:29AM 41.8533 -85.5322 82° East 295 339 19,000  Level Chicago Center
10:30AM 41.8636 -85.4219 83° East 294 338 19,000  Level Chicago Center
10:31AM 41.8778 -85.2914 82° East 295 339 19,000  Level Cleveland Center
10:32AM 41.8908 -85.1806 81° East 295 339 19,000  Level Cleveland Center
10:33AM 41.9017 -85.0614 83° East 295 339 19,000  Level Cleveland Center
10:34AM 41.9122 -84.9533 82° East 295 339 19,000  Level Cleveland Center
10:35AM 41.9225 -84.8450 83° East 295 339 19,000  Level Cleveland Center
10:36AM 41.9347 -84.7342 82° East 295 339 19,000  Level Cleveland Center
10:37AM 41.9450 -84.6261 83° East 289 333 19,000  Level Cleveland Center
10:38AM 41.9550 -84.5178 83° East 289 333 19,000  Level Cleveland Center
10:39AM 41.9647 -84.4122 83° East 289 333 19,000  Level Cleveland Center
10:40AM 41.9744 -84.3064 83° East 289 333 19,000  Level Cleveland Center
10:41AM 41.9800 -84.2033 86° East 298 343 19,000  Level Cleveland Center
10:42AM 41.9917 -84.0953 82° East 293 337 19,000  Level Cleveland Center
10:43AM 42.0011 -83.9867 83° East 293 337 19,000  Level Cleveland Center
10:44AM 42.0106 -83.8781 83° East 293 337 19,000  Level Cleveland Center
10:45AM 42.0200 -83.7669 83° East 293 337 19,000  Level Cleveland Center
10:46AM 42.0317 -83.6444 83° East 293 337 19,000  Level Cleveland Center
10:47AM 42.0383 -83.5442 85° East 293 337 19,000  Level Cleveland Center
10:48AM 42.0458 -83.4214 85° East 293 337 19,000  Level Cleveland Center
10:49AM 42.0317 -83.3089 100° East 293 337 19,000  Level Cleveland Center
10:50AM 42.0239 -83.1994 95° East 293 337 19,000  Level Cleveland Center
10:51AM 42.0369 -83.0881 81° East 293 337 19,000  Level Cleveland Center
10:52AM 42.0539 -82.9769 78° East 294 338 19,000  Level Cleveland Center
10:53AM 42.0686 -82.8683 80° East 294 338 19,000  Level Cleveland Center
10:54AM 42.0831 -82.7597 80° East 294 338 19,000  Level Cleveland Center
10:55AM 42.0686 -82.6475 100° East 289 333 19,000 -420 Level Cleveland Center
10:56AM 42.0517 -82.5322 101° East 295 339 18,200 -600 Descending Cleveland Center
10:57AM 42.0328 -82.4169 102° East 305 351 17,800 -600 Descending Cleveland Center
10:58AM 42.0097 -82.3017 105° East 311 358 17,000 -600 Descending Cleveland Center
10:59AM 41.9672 -82.2058 121° Southeast 311 358 16,600 -960 Descending Cleveland Center
11:00AM 41.9267 -82.1181 122° Southeast 305 351 15,100 -1,740 Descending Cleveland Center
11:01AM 41.9072 -82.0172 104° East 305 351 13,400 -1,680 Descending Cleveland Center
11:02AM 41.8942 -81.8886 98° East 294 338 11,800 -1,560 Descending Cleveland Center
11:03AM 41.8903 -81.8550 99° East 293 337 11,200 -1,620 Descending Cleveland Center
11:03AM 41.8789 -81.7656 100° East 290 334 9,900 -1,500 Descending Cleveland Center
11:04AM 41.8547 -81.6814 111° Southeast 289 333 8,700 -1,740 Descending Cleveland Center
11:05AM 41.7861 -81.6442 158° South 254 292 6,900 -1,680 Descending Cleveland Center
11:06AM 41.7131 -81.6542 186° South 249 287 5,400 -1,560 Descending Cleveland Center
11:07AM 41.6964 -81.6481 165° South 246 283 5,000 -1,620 Descending Cleveland Center
11:07AM 41.6467 -81.6417 175° South 249 287 3,800 -1,620 Descending Cleveland Center
11:08AM 41.6300 -81.6414 179° South 241 277 3,400 -1,200 Descending Cleveland Center
11:08AM 41.5842 -81.6381 177° South 233 268 2,600 -780 Descending Cleveland Center
11:09AM 41.5675 -81.6378 179° South 187 215 2,600 -900 Level Cleveland Center
11:09AM 41.5403 -81.6456 192° South 191 220 1,700 -1,380 Descending Cleveland Center
11:10AM 41.5317 -81.6594 230° Southwest 125 144 1,200 -900 Descending Cleveland Center
11:10AM 41.5025 -81.6644 187° South 149 171 800 -660 Descending Cleveland Center
11:12AM 41.5167 -81.6667 217° Southwest  Level FlightAware Approximate